sensor_id;sensor_type;location;lat;lon;timestamp;P1;durP1;ratioP1;P2;durP2;ratioP2
10230;SDS011;62604;49.432;8.680;2023-08-20T00:02:02;4.47;;;3.95;;
10230;SDS011;62604;49.432;8.680;2023-08-20T00:04:32;5.75;;;4.07;;
10230;SDS011;62604;49.432;8.680;2023-08-20T00:07:02;7.28;;;4.30;;
10230;SDS011;62604;49.432;8.680;2023-08-20T00:09:30;5.53;;;4.32;;
10230;SDS011;62604;49.432;8.680;2023-08-20T00:11:58;8.32;;;4.60;;
10230;SDS011;62604;49.432;8.680;2023-08-20T00:17:23;4.70;;;4.15;;
10230;SDS011;62604;49.432;8.680;2023-08-20T00:19:52;5.25;;;4.75;;
10230;SDS011;62604;49.432;8.680;2023-08-20T00:22:20;6.63;;;4.45;;
10230;SDS011;62604;49.432;8.680;2023-08-20T00:24:49;4.82;;;4.07;;
10230;SDS011;62604;49.432;8.680;2023-08-20T00:27:16;3.97;;;3.45;;
10230;SDS011;62604;49.432;8.680;2023-08-20T00:29:43;4.43;;;3.85;;
10230;SDS011;62604;49.432;8.680;2023-08-20T00:32:11;6.63;;;4.53;;
10230;SDS011;62604;49.432;8.680;2023-08-20T00:34:38;5.63;;;3.90;;
10230;SDS011;62604;49.432;8.680;2023-08-20T00:37:05;7.38;;;3.95;;
10230;SDS011;62604;49.432;8.680;2023-08-20T00:39:32;5.85;;;4.35;;
10230;SDS011;62604;49.432;8.680;2023-08-20T00:41:59;5.45;;;4.18;;
10230;SDS011;62604;49.432;8.680;2023-08-20T00:44:26;5.22;;;4.32;;
10230;SDS011;62604;49.432;8.680;2023-08-20T00:46:53;6.75;;;4.22;;
10230;SDS011;62604;49.432;8.680;2023-08-20T00:49:21;5.05;;;4.22;;
10230;SDS011;62604;49.432;8.680;2023-08-20T00:51:48;4.88;;;4.05;;
10230;SDS011;62604;49.432;8.680;2023-08-20T00:54:16;4.95;;;4.25;;
10230;SDS011;62604;49.432;8.680;2023-08-20T00:56:43;4.78;;;3.90;;
10230;SDS011;62604;49.432;8.680;2023-08-20T00:59:11;5.60;;;4.13;;
10230;SDS011;62604;49.432;8.680;2023-08-20T01:01:38;6.90;;;4.35;;
10230;SDS011;62604;49.432;8.680;2023-08-20T01:04:05;6.55;;;4.10;;
10230;SDS011;62604;49.432;8.680;2023-08-20T01:06:35;4.93;;;4.43;;
10230;SDS011;62604;49.432;8.680;2023-08-20T01:09:12;6.78;;;4.32;;
10230;SDS011;62604;49.432;8.680;2023-08-20T01:11:59;4.00;;;3.60;;
10230;SDS011;62604;49.432;8.680;2023-08-20T01:14:28;5.00;;;3.60;;
10230;SDS011;62604;49.432;8.680;2023-08-20T01:16:55;8.70;;;4.13;;
10230;SDS011;62604;49.432;8.680;2023-08-20T01:19:22;5.03;;;4.10;;
10230;SDS011;62604;49.432;8.680;2023-08-20T01:21:56;5.20;;;4.60;;
10230;SDS011;62604;49.432;8.680;2023-08-20T01:24:44;7.60;;;4.50;;
10230;SDS011;62604;49.432;8.680;2023-08-20T01:27:26;4.57;;;4.18;;
10230;SDS011;62604;49.432;8.680;2023-08-20T01:30:04;6.53;;;4.82;;
10230;SDS011;62604;49.432;8.680;2023-08-20T01:32:32;9.10;;;4.93;;
10230;SDS011;62604;49.432;8.680;2023-08-20T01:35:00;5.22;;;4.72;;
10230;SDS011;62604;49.432;8.680;2023-08-20T01:37:27;6.10;;;4.47;;
10230;SDS011;62604;49.432;8.680;2023-08-20T01:39:54;5.13;;;4.10;;
10230;SDS011;62604;49.432;8.680;2023-08-20T01:42:21;9.02;;;4.85;;
10230;SDS011;62604;49.432;8.680;2023-08-20T01:44:47;6.03;;;4.43;;
10230;SDS011;62604;49.432;8.680;2023-08-20T01:47:16;6.07;;;4.78;;
10230;SDS011;62604;49.432;8.680;2023-08-20T01:49:42;5.80;;;5.30;;
10230;SDS011;62604;49.432;8.680;2023-08-20T01:52:10;5.90;;;5.35;;
10230;SDS011;62604;49.432;8.680;2023-08-20T01:54:37;6.10;;;5.50;;
10230;SDS011;62604;49.432;8.680;2023-08-20T01:57:04;6.65;;;5.82;;
10230;SDS011;62604;49.432;8.680;2023-08-20T01:59:31;7.35;;;5.57;;
10230;SDS011;62604;49.432;8.680;2023-08-20T02:01:58;8.73;;;5.78;;
10230;SDS011;62604;49.432;8.680;2023-08-20T02:04:26;6.30;;;5.78;;
10230;SDS011;62604;49.432;8.680;2023-08-20T02:06:53;7.18;;;5.50;;
10230;SDS011;62604;49.432;8.680;2023-08-20T02:09:19;6.85;;;6.20;;
10230;SDS011;62604;49.432;8.680;2023-08-20T02:11:46;6.68;;;5.97;;
10230;SDS011;62604;49.432;8.680;2023-08-20T02:14:13;7.90;;;6.32;;
10230;SDS011;62604;49.432;8.680;2023-08-20T02:16:40;6.60;;;5.82;;
10230;SDS011;62604;49.432;8.680;2023-08-20T02:19:07;7.85;;;6.53;;
10230;SDS011;62604;49.432;8.680;2023-08-20T02:21:35;6.93;;;6.22;;
10230;SDS011;62604;49.432;8.680;2023-08-20T02:24:02;6.75;;;5.95;;
10230;SDS011;62604;49.432;8.680;2023-08-20T02:26:30;12.57;;;6.53;;
10230;SDS011;62604;49.432;8.680;2023-08-20T02:28:58;6.93;;;6.05;;
10230;SDS011;62604;49.432;8.680;2023-08-20T02:31:28;6.28;;;5.10;;
10230;SDS011;62604;49.432;8.680;2023-08-20T02:33:55;8.40;;;6.88;;
10230;SDS011;62604;49.432;8.680;2023-08-20T02:36:30;7.57;;;6.78;;
10230;SDS011;62604;49.432;8.680;2023-08-20T02:39:00;6.78;;;6.07;;
10230;SDS011;62604;49.432;8.680;2023-08-20T10:22:57;6.78;;;6.25;;
10230;SDS011;62604;49.432;8.680;2023-08-20T10:25:30;9.48;;;6.65;;
10230;SDS011;62604;49.432;8.680;2023-08-20T10:28:10;6.82;;;6.07;;
10230;SDS011;62604;49.432;8.680;2023-08-20T10:33:33;6.85;;;6.20;;
10230;SDS011;62604;49.432;8.680;2023-08-20T10:36:13;6.75;;;6.25;;
10230;SDS011;62604;49.432;8.680;2023-08-20T10:38:45;6.90;;;6.40;;
10230;SDS011;62604;49.432;8.680;2023-08-20T10:41:12;6.68;;;6.20;;
10230;SDS011;62604;49.432;8.680;2023-08-20T10:43:45;7.25;;;6.47;;
10230;SDS011;62604;49.432;8.680;2023-08-20T10:46:14;7.25;;;6.70;;
10230;SDS011;62604;49.432;8.680;2023-08-20T10:48:43;7.40;;;6.90;;
10230;SDS011;62604;49.432;8.680;2023-08-20T10:51:14;6.53;;;6.13;;
10230;SDS011;62604;49.432;8.680;2023-08-20T10:53:42;7.57;;;6.55;;
10230;SDS011;62604;49.432;8.680;2023-08-20T10:56:16;7.63;;;7.00;;
10230;SDS011;62604;49.432;8.680;2023-08-20T10:58:44;7.07;;;6.57;;
10230;SDS011;62604;49.432;8.680;2023-08-20T11:01:13;7.60;;;7.07;;
10230;SDS011;62604;49.432;8.680;2023-08-20T11:03:50;9.15;;;6.70;;
10230;SDS011;62604;49.432;8.680;2023-08-20T11:06:18;7.57;;;7.03;;
10230;SDS011;62604;49.432;8.680;2023-08-20T11:08:45;7.10;;;6.50;;
10230;SDS011;62604;49.432;8.680;2023-08-20T11:11:12;7.03;;;6.43;;
10230;SDS011;62604;49.432;8.680;2023-08-20T11:13:41;6.95;;;6.40;;
10230;SDS011;62604;49.432;8.680;2023-08-20T11:16:09;7.85;;;7.15;;
10230;SDS011;62604;49.432;8.680;2023-08-20T11:18:36;7.28;;;6.72;;
10230;SDS011;62604;49.432;8.680;2023-08-20T11:21:04;7.32;;;6.75;;
10230;SDS011;62604;49.432;8.680;2023-08-20T11:23:31;6.60;;;6.20;;
10230;SDS011;62604;49.432;8.680;2023-08-20T11:25:59;7.03;;;6.53;;
10230;SDS011;62604;49.432;8.680;2023-08-20T11:28:27;7.15;;;6.55;;
10230;SDS011;62604;49.432;8.680;2023-08-20T11:30:56;7.10;;;6.60;;
10230;SDS011;62604;49.432;8.680;2023-08-20T11:33:23;7.60;;;7.00;;
10230;SDS011;62604;49.432;8.680;2023-08-20T11:35:51;6.95;;;6.45;;
10230;SDS011;62604;49.432;8.680;2023-08-20T11:38:20;7.32;;;6.88;;
10230;SDS011;62604;49.432;8.680;2023-08-20T11:40:50;7.50;;;6.78;;
10230;SDS011;62604;49.432;8.680;2023-08-20T11:43:18;7.00;;;6.50;;
10230;SDS011;62604;49.432;8.680;2023-08-20T11:45:46;7.40;;;6.90;;
10230;SDS011;62604;49.432;8.680;2023-08-20T11:48:16;6.90;;;6.40;;
10230;SDS011;62604;49.432;8.680;2023-08-20T11:50:44;7.15;;;6.53;;
10230;SDS011;62604;49.432;8.680;2023-08-20T11:53:11;7.18;;;6.75;;
10230;SDS011;62604;49.432;8.680;2023-08-20T11:55:39;6.68;;;6.20;;
10230;SDS011;62604;49.432;8.680;2023-08-20T11:58:11;8.80;;;6.72;;
10230;SDS011;62604;49.432;8.680;2023-08-20T12:00:39;7.25;;;6.68;;
10230;SDS011;62604;49.432;8.680;2023-08-20T12:03:07;7.30;;;6.80;;
10230;SDS011;62604;49.432;8.680;2023-08-20T12:05:40;7.00;;;6.50;;
10230;SDS011;62604;49.432;8.680;2023-08-20T12:08:07;7.68;;;6.93;;
10230;SDS011;62604;49.432;8.680;2023-08-20T12:10:35;7.20;;;6.80;;
10230;SDS011;62604;49.432;8.680;2023-08-20T12:13:08;7.95;;;6.65;;
10230;SDS011;62604;49.432;8.680;2023-08-20T12:15:35;7.05;;;6.55;;
10230;SDS011;62604;49.432;8.680;2023-08-20T12:18:02;7.10;;;6.40;;
10230;SDS011;62604;49.432;8.680;2023-08-20T12:20:31;6.78;;;6.32;;
10230;SDS011;62604;49.432;8.680;2023-08-20T12:23:01;7.97;;;6.72;;
10230;SDS011;62604;49.432;8.680;2023-08-20T12:25:29;6.80;;;6.40;;
10230;SDS011;62604;49.432;8.680;2023-08-20T12:27:58;6.97;;;6.47;;
10230;SDS011;62604;49.432;8.680;2023-08-20T12:30:27;6.47;;;6.07;;
10230;SDS011;62604;49.432;8.680;2023-08-20T12:32:54;7.45;;;6.85;;
10230;SDS011;62604;49.432;8.680;2023-08-20T12:35:21;6.32;;;5.93;;
10230;SDS011;62604;49.432;8.680;2023-08-20T12:37:48;9.50;;;6.28;;
10230;SDS011;62604;49.432;8.680;2023-08-20T12:40:18;6.55;;;6.05;;
10230;SDS011;62604;49.432;8.680;2023-08-20T12:42:45;7.40;;;6.80;;
10230;SDS011;62604;49.432;8.680;2023-08-20T12:45:12;7.70;;;6.85;;
10230;SDS011;62604;49.432;8.680;2023-08-20T12:47:39;6.68;;;6.22;;
10230;SDS011;62604;49.432;8.680;2023-08-20T12:50:06;6.80;;;6.32;;
10230;SDS011;62604;49.432;8.680;2023-08-20T12:52:34;7.25;;;6.55;;
10230;SDS011;62604;49.432;8.680;2023-08-20T12:55:01;7.40;;;6.70;;
10230;SDS011;62604;49.432;8.680;2023-08-20T12:57:30;6.93;;;6.25;;
10230;SDS011;62604;49.432;8.680;2023-08-20T13:00:00;5.97;;;5.68;;
10230;SDS011;62604;49.432;8.680;2023-08-20T13:02:32;6.43;;;5.93;;
10230;SDS011;62604;49.432;8.680;2023-08-20T13:04:59;6.82;;;6.25;;
10230;SDS011;62604;49.432;8.680;2023-08-20T13:07:27;6.20;;;5.80;;
10230;SDS011;62604;49.432;8.680;2023-08-20T13:09:55;6.47;;;6.03;;
10230;SDS011;62604;49.432;8.680;2023-08-20T13:12:23;8.13;;;6.05;;
10230;SDS011;62604;49.432;8.680;2023-08-20T13:14:55;7.03;;;6.53;;
10230;SDS011;62604;49.432;8.680;2023-08-20T13:17:23;7.15;;;6.50;;
10230;SDS011;62604;49.432;8.680;2023-08-20T13:19:51;6.03;;;5.63;;
10230;SDS011;62604;49.432;8.680;2023-08-20T13:22:18;6.25;;;5.75;;
10230;SDS011;62604;49.432;8.680;2023-08-20T13:24:45;5.40;;;5.00;;
10230;SDS011;62604;49.432;8.680;2023-08-20T13:27:12;5.40;;;5.00;;
10230;SDS011;62604;49.432;8.680;2023-08-20T13:29:40;5.13;;;4.80;;
10230;SDS011;62604;49.432;8.680;2023-08-20T13:32:08;5.22;;;4.63;;
10230;SDS011;62604;49.432;8.680;2023-08-20T13:34:35;5.13;;;4.72;;
10230;SDS011;62604;49.432;8.680;2023-08-20T13:37:02;5.85;;;5.45;;
10230;SDS011;62604;49.432;8.680;2023-08-20T13:39:29;5.55;;;5.18;;
10230;SDS011;62604;49.432;8.680;2023-08-20T13:41:57;5.43;;;4.90;;
10230;SDS011;62604;49.432;8.680;2023-08-20T13:44:24;5.40;;;4.97;;
10230;SDS011;62604;49.432;8.680;2023-08-20T13:46:51;5.22;;;4.80;;
10230;SDS011;62604;49.432;8.680;2023-08-20T13:49:20;5.30;;;4.80;;
10230;SDS011;62604;49.432;8.680;2023-08-20T13:51:47;4.97;;;4.68;;
10230;SDS011;62604;49.432;8.680;2023-08-20T13:54:14;6.97;;;4.43;;
10230;SDS011;62604;49.432;8.680;2023-08-20T13:56:41;5.80;;;5.25;;
10230;SDS011;62604;49.432;8.680;2023-08-20T13:59:08;5.30;;;4.90;;
10230;SDS011;62604;49.432;8.680;2023-08-20T14:01:36;6.82;;;4.70;;
10230;SDS011;62604;49.432;8.680;2023-08-20T14:04:03;5.65;;;4.38;;
10230;SDS011;62604;49.432;8.680;2023-08-20T14:06:32;4.88;;;4.50;;
10230;SDS011;62604;49.432;8.680;2023-08-20T14:08:59;5.00;;;4.60;;
10230;SDS011;62604;49.432;8.680;2023-08-20T14:11:26;6.15;;;4.80;;
10230;SDS011;62604;49.432;8.680;2023-08-20T14:13:53;6.15;;;4.80;;
10230;SDS011;62604;49.432;8.680;2023-08-20T14:16:20;5.20;;;4.72;;
10230;SDS011;62604;49.432;8.680;2023-08-20T14:18:47;5.15;;;4.65;;
10230;SDS011;62604;49.432;8.680;2023-08-20T14:21:15;6.13;;;4.60;;
10230;SDS011;62604;49.432;8.680;2023-08-20T14:23:43;5.32;;;3.85;;
10230;SDS011;62604;49.432;8.680;2023-08-20T14:26:10;5.38;;;4.55;;
10230;SDS011;62604;49.432;8.680;2023-08-20T14:28:37;4.68;;;4.28;;
10230;SDS011;62604;49.432;8.680;2023-08-20T14:31:04;5.00;;;4.50;;
10230;SDS011;62604;49.432;8.680;2023-08-20T14:33:31;4.78;;;4.47;;
10230;SDS011;62604;49.432;8.680;2023-08-20T14:35:59;4.47;;;4.18;;
10230;SDS011;62604;49.432;8.680;2023-08-20T14:38:27;5.45;;;4.15;;
10230;SDS011;62604;49.432;8.680;2023-08-20T14:41:00;4.65;;;4.25;;
10230;SDS011;62604;49.432;8.680;2023-08-20T14:43:27;5.10;;;4.47;;
10230;SDS011;62604;49.432;8.680;2023-08-20T14:45:55;4.82;;;4.43;;
10230;SDS011;62604;49.432;8.680;2023-08-20T14:48:24;7.15;;;4.43;;
10230;SDS011;62604;49.432;8.680;2023-08-20T14:50:51;5.07;;;4.55;;
10230;SDS011;62604;49.432;8.680;2023-08-20T14:53:18;4.68;;;4.28;;
10230;SDS011;62604;49.432;8.680;2023-08-20T14:55:45;4.38;;;4.07;;
10230;SDS011;62604;49.432;8.680;2023-08-20T14:58:14;6.32;;;4.40;;
10230;SDS011;62604;49.432;8.680;2023-08-20T15:00:41;4.70;;;4.38;;
10230;SDS011;62604;49.432;8.680;2023-08-20T15:03:08;4.78;;;4.38;;
10230;SDS011;62604;49.432;8.680;2023-08-20T15:05:35;4.18;;;3.80;;
10230;SDS011;62604;49.432;8.680;2023-08-20T15:08:03;5.03;;;4.35;;
10230;SDS011;62604;49.432;8.680;2023-08-20T15:10:30;5.20;;;4.53;;
10230;SDS011;62604;49.432;8.680;2023-08-20T15:12:57;8.20;;;4.43;;
10230;SDS011;62604;49.432;8.680;2023-08-20T15:15:26;5.53;;;4.22;;
10230;SDS011;62604;49.432;8.680;2023-08-20T15:17:54;4.55;;;4.25;;
10230;SDS011;62604;49.432;8.680;2023-08-20T15:20:21;4.20;;;3.90;;
10230;SDS011;62604;49.432;8.680;2023-08-20T15:22:48;4.68;;;4.28;;
10230;SDS011;62604;49.432;8.680;2023-08-20T15:25:15;5.47;;;4.40;;
10230;SDS011;62604;49.432;8.680;2023-08-20T15:27:43;6.07;;;4.40;;
10230;SDS011;62604;49.432;8.680;2023-08-20T15:30:11;5.00;;;4.35;;
10230;SDS011;62604;49.432;8.680;2023-08-20T15:32:41;7.50;;;4.30;;
10230;SDS011;62604;49.432;8.680;2023-08-20T15:35:08;5.00;;;4.28;;
10230;SDS011;62604;49.432;8.680;2023-08-20T15:37:36;4.80;;;4.40;;
10230;SDS011;62604;49.432;8.680;2023-08-20T15:40:04;5.35;;;4.35;;
10230;SDS011;62604;49.432;8.680;2023-08-20T15:42:36;4.93;;;4.43;;
10230;SDS011;62604;49.432;8.680;2023-08-20T15:45:04;4.70;;;4.30;;
10230;SDS011;62604;49.432;8.680;2023-08-20T15:47:32;5.47;;;4.40;;
10230;SDS011;62604;49.432;8.680;2023-08-20T15:50:01;5.97;;;3.90;;
10230;SDS011;62604;49.432;8.680;2023-08-20T15:52:28;4.82;;;4.43;;
10230;SDS011;62604;49.432;8.680;2023-08-20T15:54:56;4.80;;;4.15;;
10230;SDS011;62604;49.432;8.680;2023-08-20T15:57:24;4.53;;;4.20;;
10230;SDS011;62604;49.432;8.680;2023-08-20T15:59:51;6.20;;;4.20;;
10230;SDS011;62604;49.432;8.680;2023-08-20T16:02:18;4.45;;;4.10;;
10230;SDS011;62604;49.432;8.680;2023-08-20T16:04:46;5.55;;;4.65;;
10230;SDS011;62604;49.432;8.680;2023-08-20T16:07:15;7.25;;;4.53;;
10230;SDS011;62604;49.432;8.680;2023-08-20T16:09:42;4.55;;;4.18;;
10230;SDS011;62604;49.432;8.680;2023-08-20T16:12:09;4.63;;;4.22;;
10230;SDS011;62604;49.432;8.680;2023-08-20T16:14:37;4.85;;;4.45;;
10230;SDS011;62604;49.432;8.680;2023-08-20T16:17:04;4.75;;;4.35;;
10230;SDS011;62604;49.432;8.680;2023-08-20T16:19:31;5.35;;;4.50;;
10230;SDS011;62604;49.432;8.680;2023-08-20T16:21:59;5.32;;;4.60;;
10230;SDS011;62604;49.432;8.680;2023-08-20T16:24:27;6.82;;;4.20;;
10230;SDS011;62604;49.432;8.680;2023-08-20T16:26:55;4.70;;;4.30;;
10230;SDS011;62604;49.432;8.680;2023-08-20T16:29:22;4.60;;;4.20;;
10230;SDS011;62604;49.432;8.680;2023-08-20T16:31:50;5.05;;;4.63;;
10230;SDS011;62604;49.432;8.680;2023-08-20T16:34:18;4.93;;;4.38;;
10230;SDS011;62604;49.432;8.680;2023-08-20T16:36:45;7.63;;;4.65;;
10230;SDS011;62604;49.432;8.680;2023-08-20T16:39:13;4.45;;;4.05;;
10230;SDS011;62604;49.432;8.680;2023-08-20T16:41:41;7.70;;;4.65;;
10230;SDS011;62604;49.432;8.680;2023-08-20T16:44:09;5.80;;;4.47;;
10230;SDS011;62604;49.432;8.680;2023-08-20T16:46:36;4.90;;;4.50;;
10230;SDS011;62604;49.432;8.680;2023-08-20T16:49:03;4.50;;;4.20;;
10230;SDS011;62604;49.432;8.680;2023-08-20T16:51:31;4.38;;;4.00;;
10230;SDS011;62604;49.432;8.680;2023-08-20T16:53:58;4.78;;;4.22;;
10230;SDS011;62604;49.432;8.680;2023-08-20T16:56:25;4.72;;;4.32;;
10230;SDS011;62604;49.432;8.680;2023-08-20T16:58:54;5.32;;;3.92;;
10230;SDS011;62604;49.432;8.680;2023-08-20T17:01:21;6.03;;;4.57;;
10230;SDS011;62604;49.432;8.680;2023-08-20T17:03:48;5.32;;;4.32;;
10230;SDS011;62604;49.432;8.680;2023-08-20T17:06:16;5.05;;;4.60;;
10230;SDS011;62604;49.432;8.680;2023-08-20T17:08:43;5.72;;;4.47;;
10230;SDS011;62604;49.432;8.680;2023-08-20T17:11:10;4.40;;;4.00;;
10230;SDS011;62604;49.432;8.680;2023-08-20T17:13:39;4.95;;;4.28;;
10230;SDS011;62604;49.432;8.680;2023-08-20T17:16:08;4.45;;;4.05;;
10230;SDS011;62604;49.432;8.680;2023-08-20T17:18:36;4.32;;;3.92;;
10230;SDS011;62604;49.432;8.680;2023-08-20T17:21:03;6.40;;;4.70;;
10230;SDS011;62604;49.432;8.680;2023-08-20T17:23:30;5.50;;;5.00;;
10230;SDS011;62604;49.432;8.680;2023-08-20T17:25:58;7.15;;;5.07;;
10230;SDS011;62604;49.432;8.680;2023-08-20T17:28:25;7.03;;;5.45;;
10230;SDS011;62604;49.432;8.680;2023-08-20T17:30:52;5.40;;;5.00;;
10230;SDS011;62604;49.432;8.680;2023-08-20T17:33:21;4.95;;;4.50;;
10230;SDS011;62604;49.432;8.680;2023-08-20T17:35:49;6.43;;;4.03;;
10230;SDS011;62604;49.432;8.680;2023-08-20T17:38:16;4.43;;;4.03;;
10230;SDS011;62604;49.432;8.680;2023-08-20T17:40:45;4.05;;;3.72;;
10230;SDS011;62604;49.432;8.680;2023-08-20T17:43:17;5.00;;;3.83;;
10230;SDS011;62604;49.432;8.680;2023-08-20T17:45:44;6.90;;;4.60;;
10230;SDS011;62604;49.432;8.680;2023-08-20T17:48:12;4.80;;;4.38;;
10230;SDS011;62604;49.432;8.680;2023-08-20T17:50:40;5.53;;;4.80;;
10230;SDS011;62604;49.432;8.680;2023-08-20T17:53:08;7.30;;;4.63;;
10230;SDS011;62604;49.432;8.680;2023-08-20T17:55:35;5.72;;;4.75;;
10230;SDS011;62604;49.432;8.680;2023-08-20T17:58:02;8.07;;;5.07;;
10230;SDS011;62604;49.432;8.680;2023-08-20T18:00:30;9.77;;;5.90;;
10230;SDS011;62604;49.432;8.680;2023-08-20T18:02:57;5.30;;;4.35;;
10230;SDS011;62604;49.432;8.680;2023-08-20T18:05:24;5.82;;;4.20;;
10230;SDS011;62604;49.432;8.680;2023-08-20T18:07:54;4.25;;;3.85;;
10230;SDS011;62604;49.432;8.680;2023-08-20T18:10:21;4.60;;;4.10;;
10230;SDS011;62604;49.432;8.680;2023-08-20T18:12:49;5.88;;;3.65;;
10230;SDS011;62604;49.432;8.680;2023-08-20T18:15:16;4.60;;;4.20;;
10230;SDS011;62604;49.432;8.680;2023-08-20T18:17:44;4.93;;;3.70;;
10230;SDS011;62604;49.432;8.680;2023-08-20T18:20:11;5.38;;;3.95;;
10230;SDS011;62604;49.432;8.680;2023-08-20T18:22:39;4.50;;;3.70;;
10230;SDS011;62604;49.432;8.680;2023-08-20T18:25:09;4.30;;;3.90;;
10230;SDS011;62604;49.432;8.680;2023-08-20T18:27:36;6.50;;;3.88;;
10230;SDS011;62604;49.432;8.680;2023-08-20T18:30:05;4.07;;;3.65;;
10230;SDS011;62604;49.432;8.680;2023-08-20T18:32:33;3.97;;;3.65;;
10230;SDS011;62604;49.432;8.680;2023-08-20T18:35:00;3.90;;;3.42;;
10230;SDS011;62604;49.432;8.680;2023-08-20T18:37:29;3.95;;;3.60;;
10230;SDS011;62604;49.432;8.680;2023-08-20T18:39:56;3.50;;;3.20;;
10230;SDS011;62604;49.432;8.680;2023-08-20T18:42:24;4.10;;;3.50;;
10230;SDS011;62604;49.432;8.680;2023-08-20T18:44:52;3.92;;;3.63;;
10230;SDS011;62604;49.432;8.680;2023-08-20T18:47:19;9.90;;;3.72;;
10230;SDS011;62604;49.432;8.680;2023-08-20T18:49:46;4.28;;;3.65;;
10230;SDS011;62604;49.432;8.680;2023-08-20T18:52:13;4.25;;;3.85;;
10230;SDS011;62604;49.432;8.680;2023-08-20T18:54:40;3.58;;;3.30;;
10230;SDS011;62604;49.432;8.680;2023-08-20T18:57:08;3.65;;;3.28;;
10230;SDS011;62604;49.432;8.680;2023-08-20T18:59:38;6.63;;;3.80;;
10230;SDS011;62604;49.432;8.680;2023-08-20T19:02:05;6.00;;;3.33;;
10230;SDS011;62604;49.432;8.680;2023-08-20T19:04:33;4.25;;;3.38;;
10230;SDS011;62604;49.432;8.680;2023-08-20T19:07:00;4.55;;;3.60;;
10230;SDS011;62604;49.432;8.680;2023-08-20T19:09:27;3.85;;;3.50;;
10230;SDS011;62604;49.432;8.680;2023-08-20T19:11:55;4.25;;;3.53;;
10230;SDS011;62604;49.432;8.680;2023-08-20T19:14:22;5.10;;;3.85;;
10230;SDS011;62604;49.432;8.680;2023-08-20T19:16:51;6.57;;;3.80;;
10230;SDS011;62604;49.432;8.680;2023-08-20T19:19:18;3.75;;;3.22;;
10230;SDS011;62604;49.432;8.680;2023-08-20T19:21:45;3.88;;;3.47;;
10230;SDS011;62604;49.432;8.680;2023-08-20T19:24:12;3.97;;;3.15;;
10230;SDS011;62604;49.432;8.680;2023-08-20T19:26:39;4.30;;;3.80;;
10230;SDS011;62604;49.432;8.680;2023-08-20T19:29:06;4.75;;;4.05;;
10230;SDS011;62604;49.432;8.680;2023-08-20T19:31:33;3.83;;;3.40;;
10230;SDS011;62604;49.432;8.680;2023-08-20T19:34:02;4.82;;;3.72;;
10230;SDS011;62604;49.432;8.680;2023-08-20T19:36:29;4.57;;;3.83;;
10230;SDS011;62604;49.432;8.680;2023-08-20T19:38:56;6.43;;;3.30;;
10230;SDS011;62604;49.432;8.680;2023-08-20T19:41:24;4.13;;;3.72;;
10230;SDS011;62604;49.432;8.680;2023-08-20T19:43:51;3.35;;;3.05;;
10230;SDS011;62604;49.432;8.680;2023-08-20T19:46:18;4.85;;;4.40;;
10230;SDS011;62604;49.432;8.680;2023-08-20T19:48:45;4.35;;;3.95;;
10230;SDS011;62604;49.432;8.680;2023-08-20T19:51:13;4.72;;;4.32;;
10230;SDS011;62604;49.432;8.680;2023-08-20T19:53:41;4.25;;;3.85;;
10230;SDS011;62604;49.432;8.680;2023-08-20T19:56:09;5.20;;;4.65;;
10230;SDS011;62604;49.432;8.680;2023-08-20T19:58:37;5.43;;;4.88;;
10230;SDS011;62604;49.432;8.680;2023-08-20T20:01:04;5.07;;;4.68;;
10230;SDS011;62604;49.432;8.680;2023-08-20T20:03:31;5.72;;;4.88;;
10230;SDS011;62604;49.432;8.680;2023-08-20T20:05:59;5.50;;;5.10;;
10230;SDS011;62604;49.432;8.680;2023-08-20T20:08:27;6.82;;;5.10;;
10230;SDS011;62604;49.432;8.680;2023-08-20T20:10:54;5.53;;;5.13;;
10230;SDS011;62604;49.432;8.680;2023-08-20T20:13:21;5.60;;;5.10;;
10230;SDS011;62604;49.432;8.680;2023-08-20T20:15:49;5.22;;;4.82;;
10230;SDS011;62604;49.432;8.680;2023-08-20T20:18:16;4.85;;;4.47;;
10230;SDS011;62604;49.432;8.680;2023-08-20T20:20:43;5.10;;;4.70;;
10230;SDS011;62604;49.432;8.680;2023-08-20T20:23:13;5.32;;;4.82;;
10230;SDS011;62604;49.432;8.680;2023-08-20T20:25:42;5.18;;;4.78;;
10230;SDS011;62604;49.432;8.680;2023-08-20T20:28:09;5.22;;;4.82;;
10230;SDS011;62604;49.432;8.680;2023-08-20T20:30:38;5.65;;;5.15;;
10230;SDS011;62604;49.432;8.680;2023-08-20T20:33:05;5.70;;;5.20;;
10230;SDS011;62604;49.432;8.680;2023-08-20T20:35:33;4.18;;;3.38;;
10230;SDS011;62604;49.432;8.680;2023-08-20T20:38:00;7.45;;;4.75;;
10230;SDS011;62604;49.432;8.680;2023-08-20T20:40:28;5.30;;;4.90;;
10230;SDS011;62604;49.432;8.680;2023-08-20T20:42:56;5.30;;;4.80;;
10230;SDS011;62604;49.432;8.680;2023-08-20T20:45:23;5.40;;;5.00;;
10230;SDS011;62604;49.432;8.680;2023-08-20T20:47:51;4.05;;;3.45;;
10230;SDS011;62604;49.432;8.680;2023-08-20T20:50:18;3.72;;;3.33;;
10230;SDS011;62604;49.432;8.680;2023-08-20T20:52:45;5.38;;;4.90;;
10230;SDS011;62604;49.432;8.680;2023-08-20T20:55:12;5.65;;;5.13;;
10230;SDS011;62604;49.432;8.680;2023-08-20T20:57:40;5.07;;;4.57;;
10230;SDS011;62604;49.432;8.680;2023-08-20T21:00:09;5.65;;;5.15;;
10230;SDS011;62604;49.432;8.680;2023-08-20T21:02:37;5.53;;;5.03;;
10230;SDS011;62604;49.432;8.680;2023-08-20T21:05:04;5.65;;;5.15;;
10230;SDS011;62604;49.432;8.680;2023-08-20T21:07:32;5.72;;;5.22;;
10230;SDS011;62604;49.432;8.680;2023-08-20T21:09:59;6.20;;;5.60;;
10230;SDS011;62604;49.432;8.680;2023-08-20T21:12:26;7.68;;;5.55;;
10230;SDS011;62604;49.432;8.680;2023-08-20T21:14:54;5.68;;;5.18;;
10230;SDS011;62604;49.432;8.680;2023-08-20T21:17:22;5.55;;;5.13;;
10230;SDS011;62604;49.432;8.680;2023-08-20T21:19:50;6.13;;;5.53;;
10230;SDS011;62604;49.432;8.680;2023-08-20T21:22:17;5.35;;;4.95;;
10230;SDS011;62604;49.432;8.680;2023-08-20T21:24:45;6.03;;;5.43;;
10230;SDS011;62604;49.432;8.680;2023-08-20T21:27:12;5.90;;;5.32;;
10230;SDS011;62604;49.432;8.680;2023-08-20T21:29:39;9.68;;;4.70;;
10230;SDS011;62604;49.432;8.680;2023-08-20T21:32:07;6.10;;;5.50;;
10230;SDS011;62604;49.432;8.680;2023-08-20T21:34:36;6.35;;;5.75;;
10230;SDS011;62604;49.432;8.680;2023-08-20T21:37:03;5.70;;;5.00;;
10230;SDS011;62604;49.432;8.680;2023-08-20T21:39:30;5.80;;;5.30;;
10230;SDS011;62604;49.432;8.680;2023-08-20T21:41:57;5.75;;;5.25;;
10230;SDS011;62604;49.432;8.680;2023-08-20T21:44:24;5.47;;;4.97;;
10230;SDS011;62604;49.432;8.680;2023-08-20T21:46:52;8.75;;;5.70;;
10230;SDS011;62604;49.432;8.680;2023-08-20T21:49:20;5.40;;;4.90;;
10230;SDS011;62604;49.432;8.680;2023-08-20T21:51:50;5.60;;;5.07;;
10230;SDS011;62604;49.432;8.680;2023-08-20T21:54:18;5.28;;;4.88;;
10230;SDS011;62604;49.432;8.680;2023-08-20T21:56:48;6.13;;;5.25;;
10230;SDS011;62604;49.432;8.680;2023-08-20T21:59:16;5.35;;;4.90;;
10230;SDS011;62604;49.432;8.680;2023-08-20T22:01:44;5.47;;;4.97;;
10230;SDS011;62604;49.432;8.680;2023-08-20T22:04:11;5.95;;;5.05;;
10230;SDS011;62604;49.432;8.680;2023-08-20T22:06:38;5.47;;;4.95;;
10230;SDS011;62604;49.432;8.680;2023-08-20T22:09:06;5.95;;;4.90;;
10230;SDS011;62604;49.432;8.680;2023-08-20T22:11:35;5.38;;;4.80;;
10230;SDS011;62604;49.432;8.680;2023-08-20T22:14:03;5.35;;;4.85;;
10230;SDS011;62604;49.432;8.680;2023-08-20T22:16:30;5.47;;;5.03;;
10230;SDS011;62604;49.432;8.680;2023-08-20T22:18:57;6.95;;;4.70;;
10230;SDS011;62604;49.432;8.680;2023-08-20T22:21:27;5.65;;;4.72;;
10230;SDS011;62604;49.432;8.680;2023-08-20T22:23:55;6.45;;;5.28;;
10230;SDS011;62604;49.432;8.680;2023-08-20T22:26:24;5.72;;;5.22;;
10230;SDS011;62604;49.432;8.680;2023-08-20T22:28:52;5.65;;;5.15;;
10230;SDS011;62604;49.432;8.680;2023-08-20T22:31:19;6.35;;;5.00;;
10230;SDS011;62604;49.432;8.680;2023-08-20T22:33:47;8.45;;;5.45;;
10230;SDS011;62604;49.432;8.680;2023-08-20T22:36:14;6.05;;;5.00;;
10230;SDS011;62604;49.432;8.680;2023-08-20T22:38:41;5.38;;;4.88;;
10230;SDS011;62604;49.432;8.680;2023-08-20T22:41:09;5.70;;;5.15;;